createdAt,value
2018-01-14T00:00:27.059Z,1.36
2018-01-14T00:02:57.931Z,1.31
2018-01-14T00:05:31.906Z,1.30
2018-01-14T00:08:03.752Z,1.25
2018-01-14T00:10:34.628Z,1.37
2018-01-14T00:13:05.438Z,1.36
2018-01-14T00:15:36.485Z,1.34
2018-01-14T00:18:07.371Z,1.40
2018-01-14T00:20:41.722Z,1.37
2018-01-14T00:23:12.571Z,1.45
2018-01-14T00:25:43.518Z,1.47
2018-01-14T00:28:14.478Z,1.41
2018-01-14T00:30:45.372Z,1.42
2018-01-14T00:33:16.215Z,1.48
2018-01-14T00:35:47.082Z,1.46
2018-01-14T00:38:18.833Z,1.50
2018-01-14T00:40:49.760Z,1.39
2018-01-14T00:43:20.591Z,1.38
2018-01-14T00:45:51.462Z,1.42
2018-01-14T00:48:22.360Z,1.41
2018-01-14T00:50:53.199Z,1.51
2018-01-14T00:53:23.999Z,1.45
2018-01-14T00:55:54.880Z,1.43
2018-01-14T00:58:25.735Z,1.39
2018-01-14T01:00:56.604Z,1.43
2018-01-14T01:03:27.429Z,1.49
2018-01-14T01:05:58.304Z,1.55
2018-01-14T01:08:29.157Z,1.51
2018-01-14T01:11:00.325Z,1.47
2018-01-14T01:13:31.221Z,1.44
2018-01-14T01:16:02.219Z,1.55
2018-01-14T01:18:33.081Z,1.48
2018-01-14T01:21:04.105Z,1.51
2018-01-14T01:23:38.932Z,1.49
2018-01-14T01:26:09.859Z,1.49
2018-01-14T01:28:40.752Z,1.54
2018-01-14T01:31:11.581Z,1.51
2018-01-14T01:33:42.437Z,1.66
2018-01-14T01:36:13.515Z,1.60
2018-01-14T01:38:44.344Z,1.76
2018-01-14T01:41:15.192Z,1.66
2018-01-14T01:43:46.026Z,1.63
2018-01-14T01:46:16.935Z,1.57
2018-01-14T01:48:47.758Z,1.62
2018-01-14T01:51:18.853Z,1.58
2018-01-14T01:53:49.733Z,1.60
2018-01-14T01:56:20.574Z,1.64
2018-01-14T01:58:51.428Z,1.64
2018-01-14T02:01:22.287Z,1.68
2018-01-14T02:03:53.128Z,1.59
2018-01-14T02:06:23.985Z,1.59
2018-01-14T02:08:54.869Z,1.63
2018-01-14T02:11:25.780Z,1.64
2018-01-14T02:13:56.616Z,1.63
2018-01-14T02:16:27.489Z,1.66
2018-01-14T02:18:58.388Z,1.60
2018-01-14T02:21:29.244Z,1.64
2018-01-14T02:24:00.087Z,1.60
2018-01-14T02:26:31.000Z,1.62
2018-01-14T02:29:01.846Z,1.58
2018-01-14T02:31:32.708Z,1.68
2018-01-14T02:34:03.609Z,1.62
2018-01-14T02:36:34.467Z,1.63
2018-01-14T02:39:05.300Z,1.63
2018-01-14T02:41:36.138Z,1.62
2018-01-14T02:44:06.986Z,1.60
2018-01-14T02:46:37.892Z,1.66
2018-01-14T02:49:08.805Z,1.67
2018-01-14T02:51:39.700Z,1.58
2018-01-14T02:54:10.537Z,1.60
2018-01-14T02:56:41.448Z,1.66
2018-01-14T02:59:12.385Z,1.61
2018-01-14T03:01:43.230Z,1.63
2018-01-14T03:04:14.064Z,1.56
2018-01-14T03:06:44.913Z,1.63
2018-01-14T03:09:15.796Z,1.70
2018-01-14T03:11:46.671Z,1.59
2018-01-14T03:14:17.565Z,1.56
2018-01-14T03:16:48.432Z,1.57
2018-01-14T03:19:19.242Z,1.55
2018-01-14T03:21:50.214Z,1.56
2018-01-14T03:24:21.054Z,1.56
2018-01-14T03:26:52.110Z,1.50
2018-01-14T03:29:23.002Z,1.59
2018-01-14T03:31:53.868Z,1.54
2018-01-14T03:34:24.700Z,1.56
2018-01-14T03:36:55.642Z,1.57
2018-01-14T03:39:26.994Z,1.56
2018-01-14T03:41:57.832Z,1.56
2018-01-14T03:44:28.689Z,1.61
2018-01-14T03:46:59.504Z,1.60
2018-01-14T03:49:30.386Z,1.61
2018-01-14T03:52:01.270Z,1.62
2018-01-14T03:54:32.108Z,1.63
2018-01-14T03:57:03.050Z,1.66
2018-01-14T03:59:33.891Z,1.63
2018-01-14T04:02:04.742Z,1.60
2018-01-14T04:04:35.553Z,1.71
2018-01-14T04:07:06.657Z,1.66
2018-01-14T04:09:37.505Z,1.67
2018-01-14T04:12:08.695Z,1.69
2018-01-14T04:14:39.621Z,1.71
2018-01-14T04:17:10.491Z,1.62
2018-01-14T04:19:41.429Z,1.63
2018-01-14T04:22:12.301Z,1.73
2018-01-14T04:24:43.136Z,1.70
2018-01-14T04:27:14.008Z,1.64
2018-01-14T04:29:44.837Z,1.62
2018-01-14T04:32:15.674Z,1.69
2018-01-14T04:34:46.509Z,1.62
2018-01-14T04:37:17.324Z,1.69
2018-01-14T04:39:48.157Z,1.72
2018-01-14T04:42:19.023Z,1.70
2018-01-14T04:44:49.839Z,1.68
2018-01-14T04:47:20.737Z,1.66
2018-01-14T04:49:51.561Z,1.60
2018-01-14T04:52:22.572Z,1.71
2018-01-14T04:54:53.398Z,1.66
2018-01-14T04:57:24.325Z,1.69
2018-01-14T04:59:55.225Z,1.65
2018-01-14T05:02:26.066Z,1.70
2018-01-14T05:04:56.897Z,1.69
2018-01-14T05:07:27.849Z,1.68
2018-01-14T05:09:58.685Z,1.64
2018-01-14T05:12:29.526Z,1.64
2018-01-14T05:15:00.349Z,1.63
2018-01-14T05:17:31.408Z,1.70
2018-01-14T05:20:05.714Z,1.67
2018-01-14T05:22:36.571Z,1.63
2018-01-14T05:25:07.431Z,1.64
2018-01-14T05:27:39.308Z,1.72
2018-01-14T05:30:10.166Z,1.66
2018-01-14T05:32:41.030Z,1.65
2018-01-14T05:35:11.972Z,1.70
2018-01-14T05:37:42.829Z,1.68
2018-01-14T05:40:13.689Z,1.65
2018-01-14T05:42:44.514Z,1.62
2018-01-14T05:45:15.364Z,1.66
2018-01-14T05:47:46.186Z,1.68
2018-01-14T05:50:17.046Z,1.64
2018-01-14T05:52:47.902Z,1.66
2018-01-14T05:55:18.757Z,1.66
2018-01-14T05:57:49.709Z,1.67
2018-01-14T06:00:20.574Z,1.66
2018-01-14T06:02:51.403Z,1.67
2018-01-14T06:05:22.330Z,1.68
2018-01-14T06:07:53.194Z,1.73
2018-01-14T06:10:24.036Z,1.72
2018-01-14T06:12:54.961Z,1.70
2018-01-14T06:15:25.766Z,1.71
2018-01-14T06:17:56.745Z,1.72
2018-01-14T06:20:27.654Z,1.72
2018-01-14T06:22:58.528Z,1.80
2018-01-14T06:25:29.382Z,1.79
2018-01-14T06:28:00.245Z,1.72
2018-01-14T06:30:31.085Z,1.75
2018-01-14T06:33:01.963Z,1.83
2018-01-14T06:35:32.784Z,1.82
2018-01-14T06:38:03.617Z,1.77
2018-01-14T06:40:34.474Z,1.76
2018-01-14T06:43:05.339Z,1.70
2018-01-14T06:45:36.198Z,1.73
2018-01-14T06:48:13.211Z,1.72
2018-01-14T06:50:44.025Z,1.75
2018-01-14T06:53:15.105Z,1.78
2018-01-14T06:55:45.933Z,1.79
2018-01-14T06:58:16.753Z,1.80
2018-01-14T07:00:47.618Z,1.83
2018-01-14T07:03:18.478Z,1.79
2018-01-14T07:05:49.359Z,1.88
2018-01-14T07:08:20.245Z,2.06
2018-01-14T07:10:51.097Z,2.06
2018-01-14T07:13:22.065Z,2.06
2018-01-14T07:15:52.923Z,1.97
2018-01-14T07:18:23.776Z,1.91
2018-01-14T07:20:54.708Z,1.83
2018-01-14T07:23:25.748Z,1.99
2018-01-14T07:25:56.605Z,1.95
2018-01-14T07:28:27.483Z,2.01
2018-01-14T07:31:01.607Z,1.92
2018-01-14T07:33:32.712Z,2.01
2018-01-14T07:36:03.535Z,2.05
2018-01-14T07:38:34.454Z,1.94
2018-01-14T07:41:05.305Z,2.01
2018-01-14T07:43:37.173Z,1.98
2018-01-14T07:46:08.086Z,1.96
2018-01-14T07:48:39.020Z,2.05
2018-01-14T07:51:09.890Z,2.05
2018-01-14T07:53:40.782Z,2.15
2018-01-14T07:56:11.740Z,2.16
2018-01-14T07:58:42.665Z,2.18
2018-01-14T08:01:13.577Z,2.22
2018-01-14T08:03:44.520Z,2.18
2018-01-14T08:06:15.398Z,2.20
2018-01-14T08:08:49.909Z,2.18
2018-01-14T08:11:20.780Z,2.22
2018-01-14T08:13:51.666Z,2.19
2018-01-14T08:16:22.664Z,2.23
2018-01-14T08:18:53.807Z,2.27
2018-01-14T08:21:24.664Z,2.27
2018-01-14T08:23:55.595Z,2.22
2018-01-14T08:26:26.467Z,2.26
2018-01-14T08:28:57.410Z,2.32
2018-01-14T08:31:28.251Z,2.29
2018-01-14T08:33:59.151Z,2.29
2018-01-14T08:36:30.196Z,2.29
2018-01-14T08:39:01.048Z,2.34
2018-01-14T08:41:31.944Z,2.36
2018-01-14T08:44:04.043Z,2.37
2018-01-14T08:46:38.683Z,2.40
2018-01-14T08:49:09.669Z,2.42
2018-01-14T08:51:40.680Z,2.42
2018-01-14T08:54:11.652Z,2.47
2018-01-14T08:56:42.651Z,2.47
2018-01-14T08:59:13.637Z,2.51
2018-01-14T09:01:49.491Z,2.64
2018-01-14T09:04:20.408Z,2.64
2018-01-14T09:06:51.287Z,2.62
2018-01-14T09:09:22.269Z,2.64
2018-01-14T09:11:53.218Z,2.69
2018-01-14T09:14:24.111Z,2.68
2018-01-14T09:16:55.078Z,2.73
2018-01-14T09:19:26.081Z,2.76
2018-01-14T09:21:58.946Z,2.72
2018-01-14T09:24:29.969Z,2.71
2018-01-14T09:27:00.884Z,2.80
2018-01-14T09:29:35.144Z,2.73
2018-01-14T09:32:06.064Z,2.75
2018-01-14T09:34:36.914Z,2.81
2018-01-14T09:37:07.779Z,2.82
2018-01-14T09:39:38.709Z,2.85
2018-01-14T09:42:09.598Z,2.87
2018-01-14T09:44:40.551Z,2.96
2018-01-14T09:47:11.421Z,2.99
2018-01-14T09:49:42.454Z,2.98
2018-01-14T09:52:13.279Z,3.03
2018-01-14T09:54:44.183Z,2.99
2018-01-14T09:57:15.028Z,3.11
2018-01-14T09:59:45.888Z,3.17
2018-01-14T10:02:16.711Z,3.08
2018-01-14T10:04:47.606Z,3.11
2018-01-14T10:07:19.468Z,3.01
2018-01-14T10:09:52.377Z,3.02
2018-01-14T10:12:26.939Z,2.98
2018-01-14T10:14:57.807Z,3.19
2018-01-14T10:17:29.677Z,3.18
2018-01-14T10:20:00.702Z,3.10
2018-01-14T10:22:31.852Z,3.16
2018-01-14T10:25:02.736Z,3.24
2018-01-14T10:27:33.617Z,3.17
2018-01-14T10:30:04.649Z,3.27
2018-01-14T10:32:35.610Z,3.32
2018-01-14T10:35:06.485Z,3.28
2018-01-14T10:37:37.318Z,3.26
2018-01-14T10:40:08.189Z,3.17
2018-01-14T10:42:39.085Z,3.20
2018-01-14T10:45:10.023Z,3.11
2018-01-14T10:47:40.978Z,3.08
2018-01-14T10:50:11.917Z,3.03
2018-01-14T10:52:42.864Z,3.13
2018-01-14T10:55:13.706Z,3.22
2018-01-14T10:57:44.557Z,3.20
2018-01-14T11:00:15.355Z,3.17
2018-01-14T11:02:46.178Z,3.27
2018-01-14T11:05:17.026Z,3.19
2018-01-14T11:07:47.989Z,3.20
2018-01-14T11:10:18.816Z,3.21
2018-01-14T11:12:49.608Z,3.19
2018-01-14T11:18:17.706Z,3.18
2018-01-14T11:20:48.589Z,3.23
2018-01-14T11:23:19.342Z,3.24
2018-01-14T11:25:50.233Z,3.27
2018-01-14T11:28:29.225Z,3.32
2018-01-14T11:30:59.997Z,3.25
2018-01-14T11:33:30.783Z,3.23
2018-01-14T11:36:01.673Z,3.30
2018-01-14T11:38:32.447Z,3.32
2018-01-14T11:41:03.246Z,3.32
2018-01-14T11:43:34.012Z,3.27
2018-01-14T11:46:04.783Z,3.32
2018-01-14T11:48:36.654Z,3.35
2018-01-14T11:51:08.546Z,3.52
2018-01-14T11:53:40.351Z,3.55
2018-01-14T11:56:12.132Z,3.63
2018-01-14T11:58:43.888Z,3.55
2018-01-14T12:01:14.761Z,3.56
2018-01-14T12:03:45.762Z,3.69
2018-01-14T12:06:16.604Z,3.74
2018-01-14T12:08:47.468Z,3.65
2018-01-14T12:11:18.273Z,3.56
2018-01-14T12:13:49.277Z,3.57
2018-01-14T12:16:20.090Z,3.45
2018-01-14T12:18:52.160Z,3.51
2018-01-14T12:21:22.917Z,3.60
2018-01-14T12:23:53.651Z,3.48
2018-01-14T12:26:24.468Z,3.50
2018-01-14T12:28:57.121Z,3.52
2018-01-14T12:31:29.080Z,3.41
2018-01-14T12:50:36.313Z,3.58
2018-01-14T12:53:07.116Z,3.65
2018-01-14T12:55:37.929Z,3.67
2018-01-14T12:58:10.761Z,3.61
2018-01-14T13:00:49.340Z,3.62
2018-01-14T13:03:22.239Z,3.74
2018-01-14T13:05:52.988Z,3.81
2018-01-14T13:08:23.755Z,3.98
2018-01-14T13:10:54.740Z,3.90
2018-01-14T13:13:25.521Z,3.70
2018-01-14T13:15:57.304Z,3.56
2018-01-14T13:18:40.830Z,3.59
2018-01-14T13:21:12.612Z,3.50
2018-01-14T13:23:43.501Z,3.54
2018-01-14T13:26:21.754Z,3.50
2018-01-14T13:29:00.272Z,3.56
2018-01-14T13:31:31.105Z,3.61
2018-01-14T13:34:01.934Z,3.58
2018-01-14T13:36:32.797Z,3.57
2018-01-14T13:39:03.783Z,3.53
2018-01-14T13:41:34.601Z,3.52
2018-01-14T13:44:05.434Z,3.43
2018-01-14T13:46:36.223Z,3.46
2018-01-14T13:49:07.100Z,3.36
2018-01-14T13:51:37.889Z,3.35
2018-01-14T13:54:08.658Z,3.31
2018-01-14T13:56:39.413Z,3.22
2018-01-14T13:59:10.221Z,3.22
2018-01-14T14:01:41.058Z,3.15
2018-01-14T14:04:11.920Z,3.14
2018-01-14T14:06:42.691Z,3.09
2018-01-14T14:09:13.457Z,3.11
2018-01-14T14:11:44.279Z,3.13
2018-01-14T14:14:15.058Z,3.10
2018-01-14T14:16:45.788Z,3.12
2018-01-14T14:19:24.730Z,3.11
2018-01-14T14:21:55.508Z,3.02
2018-01-14T14:24:26.675Z,3.01
2018-01-14T14:26:57.598Z,3.02
2018-01-14T14:29:28.420Z,3.00
2018-01-14T14:31:59.225Z,2.98
2018-01-14T14:34:30.015Z,2.96
2018-01-14T14:37:00.830Z,2.92
2018-01-14T14:39:31.806Z,2.97
2018-01-14T14:42:02.605Z,2.92
2018-01-14T14:44:33.502Z,2.85
2018-01-14T14:47:04.280Z,2.78
2018-01-14T14:49:35.048Z,2.89
2018-01-14T14:52:05.798Z,2.83
2018-01-14T14:54:36.592Z,2.85
2018-01-14T14:57:07.468Z,2.86
2018-01-14T14:59:38.303Z,2.77
2018-01-14T15:02:09.103Z,2.78
2018-01-14T15:04:40.029Z,2.76
2018-01-14T15:07:10.792Z,2.75
2018-01-14T15:09:41.552Z,2.78
2018-01-14T15:12:12.417Z,2.69
2018-01-14T15:14:43.517Z,2.68
2018-01-14T15:17:14.351Z,2.64
2018-01-14T15:19:45.547Z,2.59
2018-01-14T15:22:16.434Z,2.60
2018-01-14T15:24:47.421Z,2.60
2018-01-14T15:27:18.219Z,2.51
2018-01-14T15:29:49.027Z,2.48
2018-01-14T15:32:19.887Z,2.44
2018-01-14T15:34:50.704Z,2.44
2018-01-14T15:37:21.508Z,2.42
2018-01-14T15:39:52.326Z,2.41
2018-01-14T15:42:23.201Z,2.48
2018-01-14T15:44:54.256Z,2.39
2018-01-14T15:47:25.051Z,2.31
2018-01-14T15:49:56.093Z,2.29
2018-01-14T15:52:26.944Z,2.29
2018-01-14T15:54:57.705Z,2.31
2018-01-14T15:57:28.472Z,2.23
2018-01-14T15:59:59.538Z,2.17
2018-01-14T16:02:30.524Z,2.16
2018-01-14T16:05:01.304Z,2.16
2018-01-14T16:07:32.196Z,2.10
2018-01-14T16:10:02.985Z,2.09
2018-01-14T16:12:34.034Z,2.07
2018-01-14T16:15:04.955Z,2.12
2018-01-14T16:17:35.871Z,2.08
2018-01-14T16:20:06.724Z,2.01
2018-01-14T16:22:37.504Z,2.03
2018-01-14T16:25:08.330Z,2.04
2018-01-14T16:27:39.396Z,2.02
2018-01-14T16:30:10.175Z,1.92
2018-01-14T16:32:40.934Z,1.95
2018-01-14T16:35:11.779Z,1.97
2018-01-14T16:37:42.527Z,1.95
2018-01-14T16:40:13.425Z,1.87
2018-01-14T16:42:44.213Z,1.90
2018-01-14T16:45:15.000Z,1.93
2018-01-14T16:47:45.890Z,1.88
2018-01-14T16:50:16.706Z,1.83
2018-01-14T16:52:47.602Z,1.86
2018-01-14T16:55:18.893Z,1.83
2018-01-14T16:57:49.718Z,1.84
2018-01-14T17:00:20.533Z,1.82
2018-01-14T17:02:51.312Z,1.83
2018-01-14T17:05:22.210Z,1.80
2018-01-14T17:07:53.099Z,1.83
2018-01-14T17:10:23.978Z,1.84
2018-01-14T17:12:55.014Z,1.83
2018-01-14T17:15:25.785Z,1.83
2018-01-14T17:17:56.643Z,1.83
2018-01-14T17:20:27.451Z,1.80
2018-01-14T17:22:58.494Z,1.83
2018-01-14T17:25:29.526Z,1.85
2018-01-14T17:28:00.600Z,1.78
2018-01-14T17:30:31.407Z,1.84
2018-01-14T17:33:02.169Z,1.79
2018-01-14T17:35:33.229Z,1.73
2018-01-14T17:38:04.033Z,1.67
2018-01-14T17:40:35.174Z,1.70
2018-01-14T17:43:06.230Z,1.72
2018-01-14T17:45:37.081Z,1.76
2018-01-14T17:48:08.160Z,1.69
2018-01-14T17:50:39.223Z,1.67
2018-01-14T17:53:10.265Z,1.63
2018-01-14T17:55:41.084Z,1.66
2018-01-14T17:58:12.007Z,1.62
2018-01-14T18:00:42.822Z,1.67
2018-01-14T18:03:13.639Z,1.68
2018-01-14T18:05:44.504Z,1.69
2018-01-14T18:08:15.290Z,1.70
2018-01-14T18:10:46.112Z,1.69
2018-01-14T18:13:16.952Z,1.71
2018-01-14T18:15:47.811Z,1.70
2018-01-14T18:18:18.720Z,1.67
2018-01-14T18:20:49.609Z,1.67
2018-01-14T18:23:20.433Z,1.63
2018-01-14T18:25:51.196Z,1.75
2018-01-14T18:28:21.973Z,1.65
2018-01-14T18:30:52.975Z,1.59
2018-01-14T18:33:23.792Z,1.67
2018-01-14T18:35:54.831Z,1.62
2018-01-14T18:38:25.690Z,1.59
2018-01-14T18:40:57.429Z,1.59
2018-01-14T18:43:28.266Z,1.65
2018-01-14T18:46:08.250Z,1.59
2018-01-14T18:48:39.276Z,1.66
2018-01-14T18:51:13.784Z,1.64
2018-01-14T18:53:44.609Z,1.65
2018-01-14T18:56:15.475Z,1.63
2018-01-14T18:58:46.289Z,1.67
2018-01-14T19:01:17.129Z,1.68
2018-01-14T19:03:47.932Z,1.62
2018-01-14T19:06:18.810Z,1.64
2018-01-14T19:08:49.666Z,1.65
2018-01-14T19:11:20.483Z,1.71
2018-01-14T19:13:51.377Z,1.66
2018-01-14T19:16:22.179Z,1.76
2018-01-14T19:18:52.985Z,1.59
2018-01-14T19:21:23.805Z,1.67
2018-01-14T19:23:54.564Z,1.66
2018-01-14T19:26:25.348Z,1.70
2018-01-14T19:28:56.174Z,1.66
2018-01-14T19:31:26.992Z,1.62
2018-01-14T19:33:57.830Z,1.61
2018-01-14T19:36:28.620Z,1.55
2018-01-14T19:38:59.398Z,1.55
2018-01-14T19:41:30.280Z,1.62
2018-01-14T19:44:01.049Z,1.61
2018-01-14T19:46:31.903Z,1.69
2018-01-14T19:49:02.761Z,1.62
2018-01-14T19:51:33.571Z,1.59
2018-01-14T19:54:04.470Z,1.59
2018-01-14T19:56:35.610Z,1.61
2018-01-14T19:59:06.427Z,1.56
2018-01-14T20:01:37.289Z,1.56
2018-01-14T20:04:08.032Z,1.48
2018-01-14T20:06:38.887Z,1.59
2018-01-14T20:09:09.673Z,1.50
2018-01-14T20:11:40.484Z,1.52
2018-01-14T20:14:11.300Z,1.58
2018-01-14T20:16:42.102Z,1.57
2018-01-14T20:19:12.907Z,1.56
2018-01-14T20:21:43.748Z,1.52
2018-01-14T20:24:31.428Z,1.52
2018-01-14T20:27:05.998Z,1.53
2018-01-14T20:29:36.872Z,1.52
2018-01-14T20:32:07.702Z,1.55
2018-01-14T20:34:38.607Z,1.56
2018-01-14T20:37:09.424Z,1.53
2018-01-14T20:39:40.325Z,1.52
2018-01-14T20:42:11.150Z,1.52
2018-01-14T20:44:48.254Z,1.44
2018-01-14T20:47:19.066Z,1.51
2018-01-14T20:49:49.928Z,1.47
2018-01-14T20:52:20.767Z,1.54
2018-01-14T20:54:51.612Z,1.54
2018-01-14T20:57:22.373Z,1.59
2018-01-14T20:59:53.325Z,1.49
2018-01-14T21:02:24.170Z,1.53
2018-01-14T21:04:54.972Z,1.43
2018-01-14T21:07:25.894Z,1.47
2018-01-14T21:09:56.732Z,1.49
2018-01-14T21:12:27.651Z,1.46
2018-01-14T21:14:58.466Z,1.55
2018-01-14T21:17:29.282Z,1.52
2018-01-14T21:20:00.133Z,1.49
2018-01-14T21:22:30.923Z,1.48
2018-01-14T21:25:01.740Z,1.43
2018-01-14T21:27:32.668Z,1.46
2018-01-14T21:30:10.528Z,1.51
2018-01-14T21:32:41.415Z,1.43
2018-01-14T21:35:12.242Z,1.46
2018-01-14T21:37:43.065Z,1.47
2018-01-14T21:40:13.881Z,1.53
2018-01-14T21:42:44.691Z,1.51
2018-01-14T21:45:15.631Z,1.47
2018-01-14T21:47:46.514Z,1.48
2018-01-14T21:50:17.377Z,1.50
2018-01-14T21:52:48.447Z,1.49
2018-01-14T21:55:27.125Z,1.50
2018-01-14T21:57:59.225Z,1.58
2018-01-14T22:00:30.099Z,1.53
2018-01-14T22:03:00.912Z,1.42
2018-01-14T22:05:31.718Z,1.46
2018-01-14T22:08:02.637Z,1.48
2018-01-14T22:10:33.444Z,1.44
2018-01-14T22:13:04.205Z,1.48
2018-01-14T22:15:36.109Z,1.48
2018-01-14T22:18:07.055Z,1.58
2018-01-14T22:20:38.056Z,1.59
2018-01-14T22:23:09.744Z,1.48
2018-01-14T22:25:40.556Z,1.54
2018-01-14T22:28:11.359Z,1.50
2018-01-14T22:30:42.499Z,1.50
2018-01-14T22:33:13.273Z,1.51
2018-01-14T22:35:44.071Z,1.48
2018-01-14T22:38:14.868Z,1.53
2018-01-14T22:40:45.765Z,1.53
2018-01-14T22:43:16.602Z,1.60
2018-01-14T22:45:48.349Z,1.53
2018-01-14T22:48:19.223Z,1.48
2018-01-14T22:50:50.385Z,1.44
2018-01-14T22:53:21.446Z,1.46
2018-01-14T22:55:52.172Z,1.47
2018-01-14T22:58:22.963Z,1.48
2018-01-14T23:00:54.148Z,1.49
2018-01-14T23:03:25.035Z,1.55
2018-01-14T23:05:55.870Z,1.50
2018-01-14T23:08:26.760Z,1.45
2018-01-14T23:10:57.552Z,1.53
2018-01-14T23:13:28.463Z,1.52
2018-01-14T23:15:59.328Z,1.44
2018-01-14T23:18:30.126Z,1.37
2018-01-14T23:21:01.074Z,1.43
2018-01-14T23:23:31.901Z,1.49
2018-01-14T23:26:02.720Z,1.48
2018-01-14T23:28:33.501Z,1.51
2018-01-14T23:31:20.163Z,1.51
2018-01-14T23:33:50.928Z,1.48
2018-01-14T23:36:21.727Z,1.45
2018-01-14T23:38:52.808Z,1.41
2018-01-14T23:41:23.600Z,1.39
2018-01-14T23:43:54.432Z,1.48
2018-01-14T23:46:25.294Z,1.52
2018-01-14T23:48:56.065Z,1.60
2018-01-14T23:51:26.852Z,1.68
2018-01-14T23:53:58.733Z,1.65
2018-01-14T23:56:29.549Z,1.64
2018-01-14T23:59:00.357Z,1.57
